createdAt,value
2023-05-09T00:00:17.019Z,25.5
2023-05-09T00:01:56.710Z,25.5
2023-05-09T00:05:12.627Z,25.5
2023-05-09T00:06:19.385Z,25.5
2023-05-09T00:07:26.162Z,25.5
2023-05-09T00:08:32.953Z,25.5
2023-05-09T00:09:39.711Z,25.5
2023-05-09T00:10:46.486Z,25.5
2023-05-09T00:11:53.279Z,25.5
2023-05-09T00:13:00.033Z,25.5
2023-05-09T00:14:06.811Z,25.4
2023-05-09T00:15:13.585Z,25.4
2023-05-09T00:16:20.348Z,25.4
2023-05-09T00:17:27.127Z,25.4
2023-05-09T00:18:33.898Z,25.5
2023-05-09T00:19:40.689Z,25.4
2023-05-09T00:20:47.471Z,25.4
2023-05-09T00:21:54.247Z,25.4
2023-05-09T00:23:01.013Z,25.5
2023-05-09T00:24:07.798Z,25.4
2023-05-09T00:25:14.578Z,25.4
2023-05-09T00:26:21.330Z,25.4
2023-05-09T00:27:28.162Z,25.4
2023-05-09T00:28:34.915Z,25.4
2023-05-09T00:29:41.671Z,25.4
2023-05-09T00:30:48.455Z,25.4
2023-05-09T00:31:55.224Z,25.4
2023-05-09T00:34:07.473Z,25.4
2023-05-09T00:35:14.697Z,25.4
2023-05-09T00:36:21.947Z,25.4
2023-05-09T00:38:00.680Z,25.4
2023-05-09T00:39:39.482Z,25.4
2023-05-09T00:41:18.172Z,25.4
2023-05-09T00:42:56.910Z,25.4
2023-05-09T00:44:35.654Z,25.4
2023-05-09T00:46:14.389Z,25.4
2023-05-09T00:47:53.124Z,25.4
2023-05-09T00:49:31.917Z,25.4
2023-05-09T00:51:10.601Z,25.4
2023-05-09T00:52:17.855Z,25.4
2023-05-09T00:55:18.655Z,25.4
2023-05-09T00:58:34.567Z,25.4
2023-05-09T00:59:41.360Z,25.4
2023-05-09T01:00:48.109Z,25.4
2023-05-09T01:01:54.930Z,25.4
2023-05-09T01:03:01.673Z,25.4
2023-05-09T01:04:08.444Z,25.4
2023-05-09T01:05:15.239Z,25.4
2023-05-09T01:06:22.018Z,25.4
2023-05-09T01:07:28.784Z,25.4
2023-05-09T01:08:35.632Z,25.4
2023-05-09T01:09:42.342Z,25.4
2023-05-09T01:10:49.108Z,25.4
2023-05-09T01:11:55.895Z,25.4
2023-05-09T01:13:02.663Z,25.4
2023-05-09T01:14:09.452Z,25.4
2023-05-09T01:15:16.226Z,25.4
2023-05-09T01:16:23.013Z,25.4
2023-05-09T01:17:29.772Z,25.4
2023-05-09T01:18:36.582Z,25.4
2023-05-09T01:19:43.389Z,25.4
2023-05-09T01:20:50.119Z,25.4
2023-05-09T01:21:56.918Z,25.4
2023-05-09T01:23:03.673Z,25.4
2023-05-09T01:24:10.455Z,25.4
2023-05-09T01:25:17.225Z,25.4
2023-05-09T01:26:50.608Z,25.4
2023-05-09T01:27:57.827Z,25.4
2023-05-09T01:29:36.558Z,25.4
2023-05-09T01:31:15.329Z,25.4
2023-05-09T01:32:54.046Z,25.4
2023-05-09T01:34:32.794Z,25.4
2023-05-09T01:36:11.564Z,25.4
2023-05-09T01:37:50.264Z,25.4
2023-05-09T01:39:29.002Z,25.4
2023-05-09T01:41:07.736Z,25.4
2023-05-09T01:42:46.492Z,25.4
2023-05-09T01:43:53.727Z,25.4
2023-05-09T01:45:00.985Z,25.4
2023-05-09T01:49:09.140Z,25.4
2023-05-09T01:52:24.932Z,25.4
2023-05-09T01:53:31.712Z,25.3
2023-05-09T01:54:38.479Z,25.4
2023-05-09T01:55:45.247Z,25.4
2023-05-09T01:56:52.043Z,25.4
2023-05-09T01:57:58.881Z,25.3
2023-05-09T01:59:05.574Z,25.3
2023-05-09T02:00:12.368Z,25.3
2023-05-09T02:01:19.197Z,25.3
2023-05-09T02:02:25.981Z,25.3
2023-05-09T02:03:32.809Z,25.3
2023-05-09T02:04:39.464Z,25.3
2023-05-09T02:05:46.243Z,25.3
2023-05-09T02:06:53.023Z,25.3
2023-05-09T02:07:59.805Z,25.3
2023-05-09T02:09:06.646Z,25.3
2023-05-09T02:10:13.356Z,25.3
2023-05-09T02:11:20.138Z,25.3
2023-05-09T02:12:26.917Z,25.3
2023-05-09T02:13:33.674Z,25.3
2023-05-09T02:14:40.459Z,25.3
2023-05-09T02:15:47.253Z,25.3
2023-05-09T02:16:54.058Z,25.3
2023-05-09T02:18:00.795Z,25.3
2023-05-09T02:19:07.569Z,25.3
2023-05-09T02:20:40.261Z,25.3
2023-05-09T02:22:19.000Z,25.3
2023-05-09T02:23:57.784Z,25.3
2023-05-09T02:25:36.481Z,25.3
2023-05-09T02:27:15.216Z,25.3
2023-05-09T02:28:22.465Z,25.3
2023-05-09T02:29:29.719Z,25.3
2023-05-09T02:31:08.452Z,25.3
2023-05-09T02:32:47.194Z,25.3
2023-05-09T02:34:25.938Z,25.3
2023-05-09T02:36:04.686Z,25.3
2023-05-09T02:37:43.427Z,25.3
2023-05-09T02:39:22.142Z,25.3
2023-05-09T02:43:30.200Z,25.3
2023-05-09T02:44:49.015Z,25.3
2023-05-09T02:46:46.100Z,25.3
2023-05-09T02:47:52.887Z,25.3
2023-05-09T02:48:59.658Z,25.3
2023-05-09T02:50:06.441Z,25.3
2023-05-09T02:51:13.213Z,25.3
2023-05-09T02:52:20.060Z,25.3
2023-05-09T02:53:26.794Z,25.3
2023-05-09T02:54:33.564Z,25.3
2023-05-09T02:55:40.398Z,25.3
2023-05-09T02:56:47.109Z,25.2
2023-05-09T02:57:53.897Z,25.3
2023-05-09T02:59:00.723Z,25.3
2023-05-09T03:00:07.438Z,25.3
2023-05-09T03:01:14.269Z,25.3
2023-05-09T03:02:20.997Z,25.3
2023-05-09T03:03:27.773Z,25.3
2023-05-09T03:04:34.555Z,25.3
2023-05-09T03:05:41.348Z,25.3
2023-05-09T03:06:48.085Z,25.3
2023-05-09T03:07:54.869Z,25.3
2023-05-09T03:09:01.643Z,25.2
2023-05-09T03:10:08.421Z,25.2
2023-05-09T03:11:15.272Z,25.2
2023-05-09T03:12:21.970Z,25.2
2023-05-09T03:14:34.185Z,25.2
2023-05-09T03:16:12.934Z,25.2
2023-05-09T03:17:51.658Z,25.2
2023-05-09T03:19:29.218Z,25.2
2023-05-09T03:20:36.463Z,25.2
2023-05-09T03:22:15.208Z,25.2
2023-05-09T03:23:53.938Z,25.2
2023-05-09T03:25:32.676Z,25.2
2023-05-09T03:27:11.415Z,25.2
2023-05-09T03:28:50.206Z,25.2
2023-05-09T03:30:28.886Z,25.2
2023-05-09T03:32:07.621Z,25.2
2023-05-09T03:33:46.361Z,25.2
2023-05-09T03:35:57.231Z,25.2
2023-05-09T03:37:52.993Z,25.2
2023-05-09T03:38:59.668Z,25.2
2023-05-09T03:40:06.531Z,25.2
2023-05-09T03:41:13.230Z,25.2
2023-05-09T03:42:20.048Z,25.2
2023-05-09T03:43:26.781Z,25.2
2023-05-09T03:44:33.562Z,25.2
2023-05-09T03:45:40.335Z,25.2
2023-05-09T03:46:47.125Z,25.2
2023-05-09T03:47:53.890Z,25.2
2023-05-09T03:49:00.670Z,25.2
2023-05-09T03:50:07.443Z,25.2
2023-05-09T03:51:14.226Z,25.2
2023-05-09T03:52:21.001Z,25.2
2023-05-09T03:53:27.786Z,25.2
2023-05-09T03:54:34.557Z,25.2
2023-05-09T03:55:41.338Z,25.2
2023-05-09T03:56:48.106Z,25.2
2023-05-09T03:57:54.893Z,25.2
2023-05-09T03:59:01.666Z,25.2
2023-05-09T04:00:08.457Z,25.2
2023-05-09T04:01:15.225Z,25.2
2023-05-09T04:02:22.005Z,25.2
2023-05-09T04:03:28.802Z,25.2
2023-05-09T04:04:35.565Z,25.2
2023-05-09T04:06:47.797Z,25.2
2023-05-09T04:08:26.521Z,25.2
2023-05-09T04:09:33.771Z,25.2
2023-05-09T04:10:41.035Z,25.2
2023-05-09T04:12:19.776Z,25.2
2023-05-09T04:13:58.493Z,25.2
2023-05-09T04:15:37.231Z,25.2
2023-05-09T04:17:15.967Z,25.1
2023-05-09T04:18:54.709Z,25.1
2023-05-09T04:20:33.437Z,25.1
2023-05-09T04:22:12.231Z,25.1
2023-05-09T04:23:50.925Z,25.1
2023-05-09T04:25:29.664Z,25.1
2023-05-09T04:27:09.415Z,25.1
2023-05-09T04:30:25.446Z,25.1
2023-05-09T04:31:31.371Z,25.1
2023-05-09T04:32:38.011Z,25.1
2023-05-09T04:34:51.450Z,25.1
2023-05-09T04:35:58.178Z,25.1
2023-05-09T04:37:04.905Z,25.1
2023-05-09T04:38:11.667Z,25.1
2023-05-09T04:39:18.456Z,25.1
2023-05-09T04:40:25.224Z,25.1
2023-05-09T04:41:32.004Z,25.1
2023-05-09T04:42:38.804Z,25.1
2023-05-09T04:43:45.581Z,25.1
2023-05-09T04:45:59.128Z,25.1
2023-05-09T04:47:05.922Z,25.1
2023-05-09T04:48:12.624Z,25.1
2023-05-09T04:49:19.349Z,25.1
2023-05-09T04:50:26.066Z,25.1
2023-05-09T04:51:32.815Z,25.1
2023-05-09T04:52:39.517Z,25.1
2023-05-09T04:53:46.294Z,25.1
2023-05-09T04:54:53.090Z,25.1
2023-05-09T04:55:59.671Z,25.1
2023-05-09T04:57:06.444Z,25.1
2023-05-09T04:58:13.168Z,25.1
2023-05-09T04:59:19.883Z,25.1
2023-05-09T05:00:26.617Z,25.1
2023-05-09T05:01:33.327Z,25.1
2023-05-09T05:02:40.086Z,25.1
2023-05-09T05:03:46.777Z,25.1
2023-05-09T05:04:53.554Z,25.1
2023-05-09T05:06:00.333Z,25.1
2023-05-09T05:07:07.184Z,25.1
2023-05-09T05:08:13.963Z,25.1
2023-05-09T05:09:20.664Z,25.1
2023-05-09T05:10:27.453Z,25.1
2023-05-09T05:11:34.224Z,25.1
2023-05-09T05:13:46.447Z,25.1
2023-05-09T05:15:25.189Z,25.1
2023-05-09T05:17:03.927Z,25.1
2023-05-09T05:18:11.128Z,25.1
2023-05-09T05:19:18.336Z,25.1
2023-05-09T05:20:57.069Z,25.1
2023-05-09T05:22:35.801Z,25.1
2023-05-09T05:24:14.559Z,25.1
2023-05-09T05:25:53.284Z,25.1
2023-05-09T05:27:32.072Z,25.1
2023-05-09T05:29:10.788Z,25.1
2023-05-09T05:30:49.511Z,25.1
2023-05-09T05:32:28.263Z,25.1
2023-05-09T05:34:39.143Z,25.1
2023-05-09T05:36:34.810Z,25.1
2023-05-09T05:37:41.613Z,25.1
2023-05-09T05:38:48.253Z,25.1
2023-05-09T05:39:54.983Z,25.1
2023-05-09T05:41:01.678Z,25.1
2023-05-09T05:42:08.411Z,25.1
2023-05-09T05:43:15.218Z,25.1
2023-05-09T05:44:21.852Z,25.1
2023-05-09T05:45:28.727Z,25.1
2023-05-09T05:46:35.394Z,25
2023-05-09T05:47:42.297Z,25
2023-05-09T05:48:48.944Z,25
2023-05-09T05:49:55.715Z,25
2023-05-09T05:51:02.543Z,25
2023-05-09T05:52:09.315Z,25
2023-05-09T05:53:16.143Z,25
2023-05-09T05:54:22.955Z,25
2023-05-09T05:55:29.584Z,25
2023-05-09T05:56:36.507Z,25
2023-05-09T05:57:43.125Z,25
2023-05-09T05:58:49.911Z,25
2023-05-09T05:59:56.685Z,25
2023-05-09T06:01:03.482Z,25
2023-05-09T06:02:10.220Z,25
2023-05-09T06:03:16.997Z,25
2023-05-09T06:05:29.204Z,25
2023-05-09T06:07:07.944Z,25
2023-05-09T06:08:15.288Z,24.9
2023-05-09T06:09:22.454Z,24.9
2023-05-09T06:11:01.193Z,24.9
2023-05-09T06:12:40.068Z,24.9
2023-05-09T06:14:18.653Z,24.9
2023-05-09T06:15:57.420Z,24.9
2023-05-09T06:17:36.186Z,24.9
2023-05-09T06:19:14.873Z,24.9
2023-05-09T06:20:53.681Z,24.9
2023-05-09T06:22:32.358Z,24.9
2023-05-09T06:24:11.092Z,24.9
2023-05-09T06:25:50.850Z,24.9
2023-05-09T06:29:06.783Z,24.9
2023-05-09T06:30:13.509Z,24.9
2023-05-09T06:31:20.218Z,24.9
2023-05-09T06:32:26.945Z,24.9
2023-05-09T06:33:33.669Z,24.9
2023-05-09T06:34:40.397Z,24.9
2023-05-09T06:35:47.169Z,24.9
2023-05-09T06:36:53.966Z,24.9
2023-05-09T06:38:00.749Z,24.9
2023-05-09T06:39:07.512Z,25
2023-05-09T06:40:14.288Z,24.9
2023-05-09T06:41:21.069Z,24.9
2023-05-09T06:43:34.631Z,25
2023-05-09T06:44:41.578Z,24.9
2023-05-09T06:45:48.182Z,24.9
2023-05-09T06:46:54.956Z,25
2023-05-09T06:48:01.747Z,24.9
2023-05-09T06:49:08.501Z,24.9
2023-05-09T06:50:15.275Z,25
2023-05-09T06:51:22.049Z,24.9
2023-05-09T06:53:35.608Z,25
2023-05-09T06:54:42.417Z,25
2023-05-09T06:55:49.136Z,25
2023-05-09T06:58:01.372Z,25
2023-05-09T06:59:08.597Z,24.9
2023-05-09T07:00:15.844Z,24.9
2023-05-09T07:01:54.643Z,25
2023-05-09T07:03:33.317Z,25
2023-05-09T07:05:12.087Z,25
2023-05-09T07:06:50.776Z,25
2023-05-09T07:08:29.507Z,25
2023-05-09T07:10:08.243Z,25
2023-05-09T07:11:46.970Z,25
2023-05-09T07:13:25.735Z,25
2023-05-09T07:15:04.429Z,25
2023-05-09T07:16:11.687Z,25
2023-05-09T07:19:12.460Z,25
2023-05-09T07:23:35.240Z,25
2023-05-09T07:24:41.957Z,25
2023-05-09T07:25:48.686Z,25
2023-05-09T07:26:55.457Z,25
2023-05-09T07:28:02.244Z,25
2023-05-09T07:29:09.037Z,25
2023-05-09T07:30:15.777Z,25
2023-05-09T07:31:22.548Z,25
2023-05-09T07:32:29.352Z,25
2023-05-09T07:34:42.876Z,25
2023-05-09T07:35:49.653Z,25
2023-05-09T07:36:56.445Z,25
2023-05-09T07:38:03.197Z,25
2023-05-09T07:39:09.966Z,25
2023-05-09T07:40:16.737Z,25
2023-05-09T07:41:23.506Z,25
2023-05-09T07:42:30.294Z,25
2023-05-09T07:43:37.063Z,25
2023-05-09T07:44:43.824Z,25
2023-05-09T07:46:57.375Z,25
2023-05-09T07:48:04.152Z,25
2023-05-09T07:49:10.907Z,25
2023-05-09T07:50:44.316Z,25
2023-05-09T07:51:51.561Z,25
2023-05-09T07:53:30.290Z,25
2023-05-09T07:55:09.035Z,25
2023-05-09T07:56:47.777Z,25
2023-05-09T07:58:26.477Z,25
2023-05-09T08:00:05.209Z,24.9
2023-05-09T08:01:43.931Z,25
2023-05-09T08:03:22.664Z,25
2023-05-09T08:05:01.414Z,24.9
2023-05-09T08:06:40.144Z,25
2023-05-09T08:07:47.397Z,25
2023-05-09T08:08:54.655Z,25
2023-05-09T08:13:02.675Z,25
2023-05-09T08:16:19.162Z,25
2023-05-09T08:18:05.975Z,25
2023-05-09T08:19:44.758Z,25
2023-05-09T08:21:23.430Z,25
2023-05-09T08:23:02.166Z,25
2023-05-09T08:24:14.424Z,25
2023-05-09T08:25:21.679Z,25
2023-05-09T08:27:00.410Z,25
2023-05-09T08:28:39.145Z,25
2023-05-09T08:30:17.868Z,25
2023-05-09T08:31:56.609Z,25
2023-05-09T08:33:35.342Z,25
2023-05-09T08:35:14.089Z,25.1
2023-05-09T08:36:52.871Z,25.1
2023-05-09T08:38:31.557Z,25.1
2023-05-09T08:40:10.313Z,25.1
2023-05-09T08:41:17.519Z,25.1
2023-05-09T08:42:24.700Z,25.1
2023-05-09T08:44:03.489Z,25.1
2023-05-09T08:45:42.218Z,25.1
2023-05-09T08:47:20.931Z,25.2
2023-05-09T08:48:59.665Z,25.2
2023-05-09T08:50:38.400Z,25.2
2023-05-09T08:52:17.181Z,25.2
2023-05-09T08:53:55.888Z,25.2
2023-05-09T08:57:45.570Z,25.2
2023-05-09T08:58:53.766Z,25.2
2023-05-09T09:02:09.819Z,25.2
2023-05-09T09:03:16.522Z,25.2
2023-05-09T09:04:23.233Z,25.2
2023-05-09T09:05:30.027Z,25.2
2023-05-09T09:06:36.811Z,25.2
2023-05-09T09:07:43.588Z,25.2
2023-05-09T09:08:50.362Z,25.2
2023-05-09T09:09:57.122Z,25.2
2023-05-09T09:11:03.919Z,25.2
2023-05-09T09:12:10.698Z,25.2
2023-05-09T09:13:17.492Z,25.2
2023-05-09T09:14:24.263Z,25.2
2023-05-09T09:15:31.049Z,25.2
2023-05-09T09:17:44.628Z,25.2
2023-05-09T09:18:51.370Z,25.1
2023-05-09T09:19:58.152Z,25.1
2023-05-09T09:21:04.965Z,25.1
2023-05-09T09:22:11.750Z,25.1
2023-05-09T09:23:18.497Z,25.1
2023-05-09T09:24:25.161Z,25.1
2023-05-09T09:25:31.869Z,25.1
2023-05-09T09:26:38.651Z,25.1
2023-05-09T09:28:52.080Z,25.1
2023-05-09T09:30:38.498Z,25.1
2023-05-09T09:31:45.714Z,25.1
2023-05-09T09:33:24.436Z,25.1
2023-05-09T09:35:03.185Z,25.1
2023-05-09T09:36:41.943Z,25.1
2023-05-09T09:38:20.693Z,25.1
2023-05-09T09:39:59.435Z,25.1
2023-05-09T09:41:38.290Z,25.1
2023-05-09T09:43:16.920Z,25.1
2023-05-09T09:44:55.661Z,25.1
2023-05-09T09:46:34.413Z,25.1
2023-05-09T09:47:41.615Z,25.1
2023-05-09T09:48:48.785Z,25.1
2023-05-09T09:52:56.919Z,25.1
2023-05-09T09:56:12.806Z,25.1
2023-05-09T09:57:18.762Z,25.2
2023-05-09T09:58:25.534Z,25.1
2023-05-09T09:59:32.334Z,25.2
2023-05-09T10:00:39.108Z,25.2
2023-05-09T10:01:45.864Z,25.2
2023-05-09T10:02:52.672Z,25.2
2023-05-09T10:03:59.420Z,25.2
2023-05-09T10:05:06.198Z,25.2
2023-05-09T10:06:13.015Z,25.2
2023-05-09T10:07:19.757Z,25.2
2023-05-09T10:08:26.539Z,25.2
2023-05-09T10:09:33.353Z,25.2
2023-05-09T10:10:40.130Z,25.3
2023-05-09T10:11:46.869Z,25.3
2023-05-09T10:12:53.659Z,25.2
2023-05-09T10:14:00.447Z,25.3
2023-05-09T10:15:07.210Z,25.3
2023-05-09T10:16:14.095Z,25.3
2023-05-09T10:17:20.929Z,25.3
2023-05-09T10:18:27.735Z,25.3
2023-05-09T10:19:34.331Z,25.3
2023-05-09T10:20:41.158Z,25.2
2023-05-09T10:21:47.980Z,25.3
2023-05-09T10:22:54.759Z,25.3
2023-05-09T10:24:01.586Z,25.3
2023-05-09T10:25:08.341Z,25.3
2023-05-09T10:26:15.194Z,25.3
2023-05-09T10:27:21.772Z,25.3
2023-05-09T10:29:35.478Z,25.3
2023-05-09T10:30:42.121Z,25.3
2023-05-09T10:31:48.990Z,25.3
2023-05-09T10:32:55.864Z,25.2
2023-05-09T10:34:02.595Z,25.3
2023-05-09T10:35:09.308Z,25.3
2023-05-09T10:36:16.052Z,25.3
2023-05-09T10:37:22.934Z,25.3
2023-05-09T10:39:35.088Z,25.4
2023-05-09T10:40:42.360Z,25.4
2023-05-09T10:41:49.684Z,25.4
2023-05-09T10:43:28.284Z,25.4
2023-05-09T10:45:06.993Z,25.4
2023-05-09T10:46:45.720Z,25.5
2023-05-09T10:48:24.652Z,25.5
2023-05-09T10:50:03.244Z,25.5
2023-05-09T10:51:42.049Z,25.5
2023-05-09T10:53:20.688Z,25.6
2023-05-09T10:54:59.406Z,25.6
2023-05-09T10:56:38.296Z,25.6
2023-05-09T10:57:45.562Z,25.7
2023-05-09T11:00:46.202Z,25.7
2023-05-09T11:04:02.147Z,25.7
2023-05-09T11:05:08.900Z,25.7
2023-05-09T11:06:15.675Z,25.8
2023-05-09T11:07:22.446Z,25.8
2023-05-09T11:08:29.285Z,25.8
2023-05-09T11:09:36.069Z,25.8
2023-05-09T11:10:42.800Z,25.8
2023-05-09T11:11:49.557Z,25.8
2023-05-09T11:12:56.377Z,25.8
2023-05-09T11:14:03.182Z,25.8
2023-05-09T11:15:09.916Z,25.8
2023-05-09T11:16:16.672Z,25.8
2023-05-09T11:17:23.566Z,25.8
2023-05-09T11:18:30.249Z,25.8
2023-05-09T11:19:37.011Z,25.9
2023-05-09T11:20:43.886Z,25.8
2023-05-09T11:21:50.565Z,25.9
2023-05-09T11:22:57.426Z,25.9
2023-05-09T11:24:04.134Z,25.9
2023-05-09T11:25:10.996Z,25.9
2023-05-09T11:26:17.740Z,25.9
2023-05-09T11:27:24.460Z,25.9
2023-05-09T11:28:31.248Z,25.9
2023-05-09T11:29:38.152Z,25.9
2023-05-09T11:30:44.958Z,25.9
2023-05-09T11:32:18.225Z,25.9
2023-05-09T11:33:25.492Z,25.9
2023-05-09T11:35:04.157Z,25.9
2023-05-09T11:36:42.904Z,25.9
2023-05-09T11:38:21.730Z,25.9
2023-05-09T11:40:00.356Z,25.9
2023-05-09T11:41:39.110Z,25.9
2023-05-09T11:43:17.990Z,25.9
2023-05-09T11:44:56.684Z,25.9
2023-05-09T11:46:35.407Z,25.9
2023-05-09T11:48:14.046Z,26
2023-05-09T11:49:21.319Z,26
2023-05-09T11:50:28.633Z,25.9
2023-05-09T11:54:36.574Z,26
2023-05-09T11:57:53.190Z,26
2023-05-09T11:59:39.960Z,26
2023-05-09T12:01:18.589Z,26
2023-05-09T12:02:57.401Z,25.9
2023-05-09T12:04:36.074Z,26
2023-05-09T12:05:48.441Z,26
2023-05-09T12:06:55.701Z,26
2023-05-09T12:08:34.370Z,26
2023-05-09T12:10:13.040Z,26
2023-05-09T12:11:51.886Z,26.1
2023-05-09T12:13:30.549Z,26.1
2023-05-09T12:15:09.245Z,26.1
2023-05-09T12:16:48.008Z,26.1
2023-05-09T12:20:05.512Z,26.1
2023-05-09T12:21:44.216Z,26.1
2023-05-09T12:22:51.422Z,26.1
2023-05-09T12:23:58.652Z,26.1
2023-05-09T12:25:37.472Z,26.1
2023-05-09T12:27:16.098Z,26.1
2023-05-09T12:28:54.880Z,26.1
2023-05-09T12:30:33.602Z,26.1
2023-05-09T12:32:12.352Z,26.1
2023-05-09T12:33:51.090Z,26.1
2023-05-09T12:35:29.843Z,26.1
2023-05-09T12:39:19.458Z,26.1
2023-05-09T12:40:27.727Z,26.2
2023-05-09T12:43:43.797Z,26.1
2023-05-09T12:44:50.574Z,26.1
2023-05-09T12:47:04.048Z,26.1
2023-05-09T12:48:10.693Z,26.1
2023-05-09T12:49:17.283Z,26.1
2023-05-09T12:50:24.025Z,26.1
2023-05-09T12:51:30.814Z,26.1
2023-05-09T12:52:37.473Z,26.1
2023-05-09T12:53:44.129Z,26.1
2023-05-09T12:54:51.045Z,26.1
2023-05-09T12:55:57.615Z,26.1
2023-05-09T12:57:04.443Z,26.1
2023-05-09T12:58:11.141Z,26.1
2023-05-09T12:59:17.898Z,26.1
2023-05-09T13:00:24.526Z,26.1
2023-05-09T13:01:31.254Z,26.1
2023-05-09T13:02:38.212Z,26.1
2023-05-09T13:03:44.811Z,26
2023-05-09T13:04:51.583Z,26
2023-05-09T13:05:58.350Z,26
2023-05-09T13:07:05.263Z,26.1
2023-05-09T13:08:11.922Z,26.1
2023-05-09T13:09:18.720Z,26.1
2023-05-09T13:10:25.465Z,26.1
2023-05-09T13:12:12.555Z,26
2023-05-09T13:13:19.719Z,26
2023-05-09T13:14:58.449Z,26
2023-05-09T13:16:37.223Z,26
2023-05-09T13:18:15.910Z,26
2023-05-09T13:19:54.661Z,26
2023-05-09T13:21:33.416Z,26
2023-05-09T13:23:12.105Z,26
2023-05-09T13:24:50.929Z,26
2023-05-09T13:26:29.610Z,26
2023-05-09T13:28:08.346Z,26
2023-05-09T13:29:15.692Z,26
2023-05-09T13:30:22.906Z,26
2023-05-09T13:34:30.855Z,25.9
2023-05-09T13:37:48.281Z,25.9
2023-05-09T13:41:04.796Z,25.9
2023-05-09T13:42:51.642Z,25.9
2023-05-09T13:44:30.337Z,25.9
2023-05-09T13:45:42.683Z,25.9
2023-05-09T13:46:50.003Z,25.9
2023-05-09T13:48:28.631Z,25.9
2023-05-09T13:50:07.339Z,25.9
2023-05-09T13:51:46.066Z,25.8
2023-05-09T13:53:24.799Z,25.8
2023-05-09T13:55:03.553Z,25.8
2023-05-09T13:56:42.360Z,25.8
2023-05-09T13:58:21.017Z,25.8
2023-05-09T13:59:59.769Z,25.8
2023-05-09T14:01:38.490Z,25.8
2023-05-09T14:02:45.756Z,25.8
2023-05-09T14:03:53.026Z,25.8
2023-05-09T14:05:31.746Z,25.8
2023-05-09T14:07:10.474Z,25.7
2023-05-09T14:08:49.232Z,25.7
2023-05-09T14:10:27.956Z,25.7
2023-05-09T14:12:06.698Z,25.7
2023-05-09T14:13:45.461Z,25.7
2023-05-09T14:15:24.176Z,25.7
2023-05-09T14:17:02.920Z,25.7
2023-05-09T14:18:41.711Z,25.7
2023-05-09T14:20:21.407Z,25.7
2023-05-09T14:23:37.374Z,25.7
2023-05-09T14:24:44.124Z,25.7
2023-05-09T14:25:50.936Z,25.7
2023-05-09T14:26:57.689Z,25.7
2023-05-09T14:29:11.230Z,25.6
2023-05-09T14:30:18.026Z,25.6
2023-05-09T14:31:24.795Z,25.6
2023-05-09T14:33:38.360Z,25.6
2023-05-09T14:34:45.145Z,25.6
2023-05-09T14:35:51.903Z,25.6
2023-05-09T14:36:58.672Z,25.6
2023-05-09T14:38:05.462Z,25.6
2023-05-09T14:39:12.244Z,25.6
2023-05-09T14:40:19.034Z,25.6
2023-05-09T14:41:25.800Z,25.6
2023-05-09T14:42:32.579Z,25.6
2023-05-09T14:43:39.353Z,25.6
2023-05-09T14:44:46.134Z,25.5
2023-05-09T14:45:52.908Z,25.5
2023-05-09T14:46:59.689Z,25.5
2023-05-09T14:48:06.467Z,25.5
2023-05-09T14:49:13.293Z,25.5
2023-05-09T14:50:20.057Z,25.5
2023-05-09T14:52:32.252Z,25.5
2023-05-09T14:53:39.498Z,25.5
2023-05-09T14:54:46.762Z,25.5
2023-05-09T14:56:25.488Z,25.5
2023-05-09T14:58:04.264Z,25.5
2023-05-09T14:59:43.043Z,25.5
2023-05-09T15:01:21.692Z,25.5
2023-05-09T15:03:00.449Z,25.4
2023-05-09T15:04:39.171Z,25.4
2023-05-09T15:06:17.923Z,25.4
2023-05-09T15:07:56.637Z,25.4
2023-05-09T15:09:35.388Z,25.4
2023-05-09T15:10:42.664Z,25.5
2023-05-09T15:13:43.421Z,25.4
2023-05-09T15:17:01.060Z,25.4
2023-05-09T15:20:33.161Z,25.4
2023-05-09T15:21:39.931Z,25.4
2023-05-09T15:22:46.706Z,25.4
2023-05-09T15:23:53.512Z,25.4
2023-05-09T15:26:07.054Z,25.4
2023-05-09T15:27:13.828Z,25.4
2023-05-09T15:28:20.589Z,25.4
2023-05-09T15:29:27.374Z,25.4
2023-05-09T15:30:34.260Z,25.4
2023-05-09T15:31:40.919Z,25.4
2023-05-09T15:32:47.700Z,25.4
2023-05-09T15:33:54.469Z,25.4
2023-05-09T15:35:01.298Z,25.4
2023-05-09T15:36:08.037Z,25.4
2023-05-09T15:37:14.822Z,25.4
2023-05-09T15:38:21.581Z,25.4
2023-05-09T15:39:28.365Z,25.4
2023-05-09T15:40:35.132Z,25.4
2023-05-09T15:41:41.933Z,25.3
2023-05-09T15:42:48.699Z,25.4
2023-05-09T15:43:55.483Z,25.4
2023-05-09T15:45:02.294Z,25.4
2023-05-09T15:46:09.017Z,25.3
2023-05-09T15:47:15.797Z,25.3
2023-05-09T15:49:28.065Z,25.3
2023-05-09T15:51:06.753Z,25.3
2023-05-09T15:52:45.495Z,25.3
2023-05-09T15:54:23.080Z,25.3
2023-05-09T15:55:30.282Z,25.3
2023-05-09T15:57:09.112Z,25.3
2023-05-09T15:58:47.797Z,25.3
2023-05-09T16:00:26.498Z,25.3
2023-05-09T16:02:05.228Z,25.3
2023-05-09T16:03:43.990Z,25.3
2023-05-09T16:05:22.717Z,25.3
2023-05-09T16:07:01.449Z,25.3
2023-05-09T16:08:40.204Z,25.3
2023-05-09T16:10:51.056Z,25.3
2023-05-09T16:12:47.310Z,25.3
2023-05-09T16:14:34.130Z,25.3
2023-05-09T16:16:12.869Z,25.3
2023-05-09T16:17:51.627Z,25.3
2023-05-09T16:19:30.722Z,25.3
2023-05-09T16:21:09.170Z,25.3
2023-05-09T16:22:47.836Z,25.3
2023-05-09T16:24:26.627Z,25.3
2023-05-09T16:26:05.305Z,25.3
2023-05-09T16:27:44.049Z,25.3
2023-05-09T16:29:22.796Z,25.3
2023-05-09T16:31:01.516Z,25.3
2023-05-09T16:32:40.250Z,25.2
2023-05-09T16:34:18.983Z,25.3
2023-05-09T16:35:57.748Z,25.2
2023-05-09T16:37:36.452Z,25.2
2023-05-09T16:39:15.193Z,25.2
2023-05-09T16:40:53.924Z,25.2
2023-05-09T16:42:32.665Z,25.2
2023-05-09T16:43:44.082Z,25.2
2023-05-09T16:44:51.368Z,25.2
2023-05-09T16:46:30.078Z,25.2
2023-05-09T16:48:08.815Z,25.2
2023-05-09T16:49:47.553Z,25.2
2023-05-09T16:51:26.285Z,25.2
2023-05-09T16:55:34.330Z,25.2
2023-05-09T16:58:50.848Z,25.2
2023-05-09T17:00:11.122Z,25.2
2023-05-09T17:01:18.375Z,25.1
2023-05-09T17:02:57.117Z,25.2
2023-05-09T17:04:35.850Z,25.1
2023-05-09T17:06:14.606Z,25.1
2023-05-09T17:07:53.335Z,25.1
2023-05-09T17:09:32.099Z,25.1
2023-05-09T17:11:10.815Z,25.1
2023-05-09T17:12:49.563Z,25.1
2023-05-09T17:14:28.293Z,25.1
2023-05-09T17:16:07.042Z,25.1
2023-05-09T17:17:14.240Z,25.1
2023-05-09T17:18:21.436Z,25.1
2023-05-09T17:20:00.181Z,25.1
2023-05-09T17:21:38.933Z,25.1
2023-05-09T17:23:17.649Z,25.1
2023-05-09T17:24:56.400Z,25.1
2023-05-09T17:26:35.135Z,25.1
2023-05-09T17:28:13.861Z,25.1
2023-05-09T17:29:52.630Z,25
2023-05-09T17:31:31.355Z,25
2023-05-09T17:33:10.080Z,25
2023-05-09T17:34:17.303Z,25
2023-05-09T17:35:24.554Z,25
2023-05-09T17:39:32.576Z,25
2023-05-09T17:42:49.981Z,25
2023-05-09T17:46:06.469Z,25
2023-05-09T17:47:53.287Z,25
2023-05-09T17:49:32.020Z,25
2023-05-09T17:50:44.334Z,25
2023-05-09T17:51:51.571Z,25
2023-05-09T17:53:30.309Z,25
2023-05-09T17:55:09.041Z,25
2023-05-09T17:56:47.786Z,25
2023-05-09T17:58:26.506Z,25
2023-05-09T18:00:05.235Z,25
2023-05-09T18:01:43.971Z,24.9
2023-05-09T18:03:22.701Z,25
2023-05-09T18:05:01.430Z,25
2023-05-09T18:06:40.239Z,25
2023-05-09T18:07:47.403Z,25
2023-05-09T18:08:54.681Z,25
2023-05-09T18:10:33.384Z,25
2023-05-09T18:12:12.141Z,25
2023-05-09T18:13:50.830Z,24.9
2023-05-09T18:15:29.631Z,24.9
2023-05-09T18:17:08.317Z,24.9
2023-05-09T18:18:47.189Z,24.9
2023-05-09T18:20:25.784Z,24.9
2023-05-09T18:22:04.510Z,24.9
2023-05-09T18:23:43.315Z,24.9
2023-05-09T18:25:22.998Z,24.9
2023-05-09T18:28:39.610Z,24.9
2023-05-09T18:30:26.341Z,24.9
2023-05-09T18:32:05.147Z,24.9
2023-05-09T18:33:43.811Z,24.9
2023-05-09T18:35:22.593Z,24.9
2023-05-09T18:37:01.291Z,24.9
2023-05-09T18:38:40.033Z,24.9
2023-05-09T18:40:18.836Z,24.9
2023-05-09T18:41:57.521Z,24.9
2023-05-09T18:43:36.257Z,24.9
2023-05-09T18:45:15.011Z,24.9
2023-05-09T18:46:53.755Z,24.9
2023-05-09T18:48:32.481Z,24.9
2023-05-09T18:49:39.679Z,24.9
2023-05-09T18:50:46.871Z,24.9
2023-05-09T18:52:25.611Z,24.9
2023-05-09T18:54:04.357Z,24.9
2023-05-09T18:55:43.082Z,24.9
2023-05-09T18:57:21.839Z,24.9
2023-05-09T18:59:00.587Z,24.9
2023-05-09T19:00:39.323Z,24.9
2023-05-09T19:02:18.055Z,24.9
2023-05-09T19:03:56.806Z,24.9
2023-05-09T19:05:35.652Z,24.9
2023-05-09T19:06:42.949Z,25
2023-05-09T19:09:43.682Z,25
2023-05-09T19:13:00.298Z,25
2023-05-09T19:14:46.916Z,25
2023-05-09T19:16:25.681Z,25.1
2023-05-09T19:18:04.370Z,25.1
2023-05-09T19:19:43.087Z,25.1
2023-05-09T19:21:21.866Z,25.1
2023-05-09T19:23:00.645Z,25.2
2023-05-09T19:24:07.815Z,25.2
2023-05-09T19:25:15.062Z,25.2
2023-05-09T19:26:53.834Z,25.2
2023-05-09T19:28:32.555Z,25.2
2023-05-09T19:30:11.274Z,25.2
2023-05-09T19:31:50.133Z,25.2
2023-05-09T19:33:28.751Z,25.2
2023-05-09T19:35:07.518Z,25.2
2023-05-09T19:36:46.237Z,25.2
2023-05-09T19:38:24.976Z,25.1
2023-05-09T19:40:03.720Z,25.1
2023-05-09T19:41:10.929Z,25.1
2023-05-09T19:42:18.097Z,25.1
2023-05-09T19:43:56.842Z,25.1
2023-05-09T19:45:35.585Z,25.1
2023-05-09T19:47:14.477Z,25.1